Time;durP1;ratioP1;P1;durP2;ratioP2;P2;SDS_P1;SDS_P2;PMS_P1;PMS_P2;Temp;Humidity;BMP_temperature;BMP_pressure;BME280_temperature;BME280_humidity;BME280_pressure;Samples;Min_cycle;Max_cycle;Signal;HPM_P1;HPM_P2
2023/06/21 00:00:37;;;;;;;6.88;5.75;;;19.50;99.90;;;;;;4966528;28;20936;-36
2023/06/21 00:03:05;;;;;;;8.90;5.88;;;19.50;99.90;;;;;;4964250;28;20058;-36
2023/06/21 00:05:32;;;;;;;10.27;5.75;;;19.50;99.90;;;;;;4966819;28;20058;-36
2023/06/21 00:07:57;;;;;;;8.30;5.65;;;19.40;99.90;;;;;;4968369;28;20082;-36
2023/06/21 00:10:24;;;;;;;8.52;5.47;;;19.40;99.90;;;;;;4965649;28;20093;-35
2023/06/21 00:12:50;;;;;;;8.23;5.28;;;19.30;99.90;;;;;;4966742;28;20215;-36
2023/06/21 00:15:16;;;;;;;9.20;6.35;;;19.30;99.90;;;;;;4968291;28;20126;-35
2023/06/21 00:17:42;;;;;;;8.07;6.38;;;19.30;99.90;;;;;;4966699;28;20051;-36
2023/06/21 00:20:10;;;;;;;9.93;5.97;;;19.30;99.90;;;;;;4962727;28;20422;-35
2023/06/21 00:22:37;;;;;;;8.93;5.97;;;19.30;99.90;;;;;;4959776;28;20055;-36
2023/06/21 00:25:03;;;;;;;12.57;8.13;;;19.20;99.90;;;;;;4944937;28;20054;-36
2023/06/21 00:27:29;;;;;;;8.75;6.05;;;19.20;99.90;;;;;;4965271;28;20054;-36
2023/06/21 00:29:54;;;;;;;9.70;6.65;;;19.20;99.90;;;;;;4959611;28;20054;-36
2023/06/21 00:32:20;;;;;;;9.65;6.78;;;19.10;99.90;;;;;;4963871;28;20047;-36
2023/06/21 00:34:47;;;;;;;8.73;7.13;;;19.10;99.90;;;;;;4968860;28;20062;-36
2023/06/21 00:37:13;;;;;;;9.57;6.63;;;19.00;99.90;;;;;;4965270;28;20066;-36
2023/06/21 00:39:39;;;;;;;10.73;8.18;;;19.00;99.90;;;;;;4965809;28;20193;-37
2023/06/21 00:42:05;;;;;;;10.70;7.80;;;19.00;99.90;;;;;;4965697;28;20133;-35
2023/06/21 00:44:31;;;;;;;9.32;7.10;;;18.90;99.90;;;;;;4968297;28;20489;-35
2023/06/21 00:46:57;;;;;;;9.60;6.57;;;18.90;99.90;;;;;;4965211;28;20050;-35
2023/06/21 00:49:23;;;;;;;9.82;7.28;;;18.90;99.90;;;;;;4963435;28;20082;-34
2023/06/21 00:51:53;;;;;;;10.40;7.22;;;18.90;99.90;;;;;;4967338;28;20090;-35
2023/06/21 00:54:20;;;;;;;10.68;8.25;;;18.90;99.90;;;;;;4965647;28;20097;-35
2023/06/21 00:56:46;;;;;;;10.88;8.27;;;18.80;99.90;;;;;;4964165;28;20055;-35
2023/06/21 00:59:13;;;;;;;10.93;8.30;;;18.80;99.90;;;;;;4968175;28;20557;-36
2023/06/21 01:01:39;;;;;;;12.52;8.13;;;18.80;99.90;;;;;;4962279;28;20043;-35
2023/06/21 01:04:09;;;;;;;10.10;6.90;;;18.70;99.90;;;;;;4963965;28;20042;-36
2023/06/21 01:07:01;;;;;;;10.23;7.47;;;18.80;99.90;;;;;;4962891;28;20484;-36
2023/06/21 01:09:56;;;;;;;12.48;8.65;;;18.70;99.90;;;;;;4956395;28;20119;-35
2023/06/21 01:12:43;;;;;;;10.63;8.00;;;18.70;99.90;;;;;;4961828;28;20051;-36
2023/06/21 01:15:17;;;;;;;12.52;8.10;;;18.70;99.90;;;;;;4962489;28;20051;-36
2023/06/21 01:17:47;;;;;;;11.27;7.80;;;18.70;99.90;;;;;;4965239;28;20078;-36
2023/06/21 01:20:18;;;;;;;13.48;9.20;;;18.70;99.90;;;;;;4964658;28;20051;-36
2023/06/21 01:22:46;;;;;;;11.50;7.38;;;18.70;99.90;;;;;;4965204;28;20055;-35
2023/06/21 01:25:45;;;;;;;15.65;9.70;;;18.70;99.90;;;;;;4959753;28;20058;-35
2023/06/21 01:28:20;;;;;;;13.10;9.07;;;18.70;99.90;;;;;;4968165;28;20233;-36
2023/06/21 01:30:48;;;;;;;13.32;9.38;;;18.70;99.90;;;;;;4961318;28;20401;-35
2023/06/21 01:33:17;;;;;;;13.82;9.45;;;18.70;99.90;;;;;;4960338;28;20058;-36
2023/06/21 01:35:43;;;;;;;13.88;9.15;;;18.70;99.90;;;;;;4963594;28;20078;-36
2023/06/21 01:38:09;;;;;;;16.05;10.52;;;18.70;99.90;;;;;;4965386;28;20259;-35
2023/06/21 01:40:37;;;;;;;14.95;10.80;;;18.70;99.90;;;;;;4957893;28;20404;-35
2023/06/21 01:43:03;;;;;;;14.38;10.30;;;18.80;99.90;;;;;;4969605;28;20401;-35
2023/06/21 01:45:29;;;;;;;22.33;11.25;;;18.70;99.90;;;;;;4964601;28;20060;-35
2023/06/21 01:47:56;;;;;;;17.23;12.45;;;18.70;99.90;;;;;;4970220;28;20133;-36
2023/06/21 01:50:22;;;;;;;12.65;9.73;;;18.70;99.90;;;;;;4964401;28;20042;-35
2023/06/21 01:52:49;;;;;;;18.70;11.98;;;18.70;99.90;;;;;;4966659;28;20768;-35
2023/06/21 01:55:17;;;;;;;18.63;13.27;;;18.80;99.90;;;;;;4964568;28;20405;-36
2023/06/21 01:57:43;;;;;;;17.02;12.13;;;18.80;99.90;;;;;;4969191;28;20515;-35
2023/06/21 02:00:17;;;;;;;16.40;10.82;;;18.80;99.90;;;;;;4966553;28;20054;-35
2023/06/21 02:02:48;;;;;;;19.13;13.15;;;18.80;99.90;;;;;;4967358;28;20122;-35
2023/06/21 02:05:16;;;;;;;18.23;12.25;;;18.80;99.90;;;;;;4966055;28;20521;-36
2023/06/21 02:07:44;;;;;;;18.00;12.88;;;18.80;99.90;;;;;;4969900;28;20051;-42
2023/06/21 02:10:12;;;;;;;18.00;13.27;;;18.80;99.90;;;;;;4967715;28;20489;-36
2023/06/21 02:12:41;;;;;;;18.00;12.60;;;18.90;99.90;;;;;;4963989;28;20066;-36
2023/06/21 02:15:08;;;;;;;19.35;13.13;;;18.80;99.90;;;;;;4964596;28;20489;-35
2023/06/21 02:17:34;;;;;;;19.50;13.50;;;18.80;99.90;;;;;;4965855;28;20063;-35
2023/06/21 02:20:00;;;;;;;18.92;13.32;;;18.80;99.90;;;;;;4962673;28;20065;-36
2023/06/21 02:22:25;;;;;;;18.52;13.90;;;18.70;99.90;;;;;;4967874;28;20055;-35
2023/06/21 02:24:51;;;;;;;17.25;11.45;;;18.70;99.90;;;;;;4964600;28;20050;-35
2023/06/21 02:27:17;;;;;;;19.17;13.68;;;18.70;99.90;;;;;;4973494;28;20039;-36
2023/06/21 02:29:42;;;;;;;18.52;12.93;;;18.60;99.90;;;;;;4968437;28;20081;-35
2023/06/21 02:32:08;;;;;;;22.52;14.02;;;18.60;99.90;;;;;;4964849;28;20047;-36
2023/06/21 02:34:33;;;;;;;19.30;13.90;;;18.60;99.90;;;;;;4965954;28;20078;-37
2023/06/21 02:36:59;;;;;;;18.13;13.10;;;18.50;99.90;;;;;;4964593;28;20394;-35
2023/06/21 02:39:25;;;;;;;20.50;14.10;;;18.50;99.90;;;;;;4966293;28;20043;-36
2023/06/21 02:41:54;;;;;;;21.52;15.05;;;18.50;99.90;;;;;;4968916;28;20054;-42
2023/06/21 02:44:20;;;;;;;20.65;11.77;;;18.50;99.90;;;;;;4971433;28;20039;-35
2023/06/21 02:46:46;;;;;;;19.75;13.60;;;18.40;99.90;;;;;;4972309;28;20097;-35
2023/06/21 02:49:11;;;;;;;19.30;13.98;;;18.40;99.90;;;;;;4957127;28;20039;-35
2023/06/21 02:51:37;;;;;;;21.48;14.18;;;18.40;99.90;;;;;;4966059;28;20057;-35
2023/06/21 02:54:03;;;;;;;22.50;14.10;;;18.40;99.90;;;;;;4967087;28;20051;-36
2023/06/21 02:56:30;;;;;;;21.50;14.80;;;18.40;99.90;;;;;;4966167;28;20539;-35
2023/06/21 02:58:56;;;;;;;18.17;11.52;;;18.40;99.90;;;;;;4965442;28;20051;-35
2023/06/21 03:01:22;;;;;;;21.38;15.27;;;18.30;99.90;;;;;;4963117;28;20500;-36
2023/06/21 03:03:47;;;;;;;22.60;15.27;;;18.30;99.90;;;;;;4965938;28;20078;-35
2023/06/21 03:06:13;;;;;;;19.98;14.10;;;18.30;99.90;;;;;;4965571;28;20109;-35
2023/06/21 03:08:39;;;;;;;19.58;13.63;;;18.30;99.90;;;;;;4968071;28;20047;-35
2023/06/21 03:11:08;;;;;;;20.48;14.48;;;18.30;99.90;;;;;;4949922;28;20074;-35
2023/06/21 03:13:37;;;;;;;25.02;15.32;;;18.30;99.90;;;;;;4966265;28;20142;-36
2023/06/21 03:16:06;;;;;;;20.80;14.48;;;18.30;99.90;;;;;;4970654;28;20050;-36
2023/06/21 03:18:32;;;;;;;20.23;13.77;;;18.30;99.90;;;;;;4965920;28;20054;-35
2023/06/21 03:21:00;;;;;;;19.35;12.52;;;18.30;99.90;;;;;;4968266;28;20057;-35
2023/06/21 03:23:27;;;;;;;17.05;12.98;;;18.20;99.90;;;;;;4974401;28;20055;-35
2023/06/21 03:25:53;;;;;;;21.23;14.10;;;18.20;99.90;;;;;;4967047;28;20050;-35
2023/06/21 03:28:18;;;;;;;20.85;14.43;;;18.20;99.90;;;;;;4967384;28;20047;-35
2023/06/21 03:30:44;;;;;;;23.73;15.93;;;18.20;99.90;;;;;;4965041;28;20054;-35
2023/06/21 03:33:10;;;;;;;25.02;16.15;;;18.20;99.90;;;;;;4968063;28;20508;-44
2023/06/21 03:35:36;;;;;;;22.23;15.85;;;18.20;99.90;;;;;;4958747;28;20129;-35
2023/06/21 03:38:02;;;;;;;22.33;15.07;;;18.20;99.90;;;;;;4969886;28;20059;-36
2023/06/21 03:40:28;;;;;;;23.00;16.20;;;18.20;99.90;;;;;;4958935;28;20416;-35
2023/06/21 03:42:54;;;;;;;23.60;15.73;;;18.20;99.90;;;;;;4965257;28;20121;-35
2023/06/21 03:45:20;;;;;;;22.45;15.63;;;18.20;99.90;;;;;;4965206;28;20053;-35
2023/06/21 03:47:46;;;;;;;24.92;17.02;;;18.20;99.90;;;;;;4960144;28;20061;-36
2023/06/21 03:50:13;;;;;;;22.58;15.77;;;18.20;99.90;;;;;;4965913;28;20125;-39
2023/06/21 03:52:38;;;;;;;24.23;17.20;;;18.20;99.90;;;;;;4950277;28;20058;-35
2023/06/21 03:55:06;;;;;;;22.52;15.75;;;18.10;99.90;;;;;;4968799;28;20133;-35
2023/06/21 03:57:31;;;;;;;22.67;15.75;;;18.10;99.90;;;;;;4966345;28;20141;-35
2023/06/21 03:59:57;;;;;;;28.17;19.52;;;18.10;99.90;;;;;;4968061;28;20134;-35
2023/06/21 04:02:24;;;;;;;27.63;17.90;;;18.10;99.90;;;;;;4963610;28;20051;-35
2023/06/21 04:04:50;;;;;;;22.83;15.80;;;18.20;99.90;;;;;;4954852;28;20497;-35
2023/06/21 04:07:21;;;;;;;27.85;18.00;;;18.20;99.90;;;;;;4959032;28;20043;-35
2023/06/21 04:09:47;;;;;;;27.20;17.97;;;18.10;99.90;;;;;;4958679;28;20087;-36
2023/06/21 04:12:13;;;;;;;22.15;14.90;;;18.10;99.90;;;;;;4962716;28;20058;-35
2023/06/21 04:14:39;;;;;;;23.38;16.98;;;18.10;99.90;;;;;;4963797;28;20057;-36
2023/06/21 04:17:05;;;;;;;32.20;19.00;;;18.10;99.90;;;;;;4964804;28;20058;-36
2023/06/21 04:19:31;;;;;;;30.52;18.88;;;18.20;99.90;;;;;;4960150;28;20043;-36
2023/06/21 04:21:56;;;;;;;25.10;17.65;;;18.20;99.90;;;;;;4966583;28;20061;-36
2023/06/21 04:24:22;;;;;;;29.23;18.75;;;18.10;99.90;;;;;;4960066;28;20082;-36
2023/06/21 04:26:48;;;;;;;32.70;20.35;;;18.20;99.90;;;;;;4961167;28;20057;-35
2023/06/21 04:29:16;;;;;;;28.55;16.95;;;18.20;99.90;;;;;;4949057;28;20412;-35
2023/06/21 04:31:45;;;;;;;29.33;19.20;;;18.20;99.90;;;;;;4962049;28;20441;-35
2023/06/21 04:34:11;;;;;;;27.50;18.27;;;18.20;99.90;;;;;;4966584;28;20519;-35
2023/06/21 04:36:37;;;;;;;29.92;18.60;;;18.20;99.90;;;;;;4955451;28;20075;-35
2023/06/21 04:39:03;;;;;;;29.75;19.15;;;18.20;99.90;;;;;;4966725;28;20047;-35
2023/06/21 04:41:29;;;;;;;28.33;19.35;;;18.30;99.90;;;;;;4956952;28;20051;-36
2023/06/21 04:43:55;;;;;;;29.85;18.67;;;18.30;99.90;;;;;;4966846;28;20405;-35
2023/06/21 04:46:23;;;;;;;34.10;19.65;;;18.30;99.90;;;;;;4966788;28;20051;-36
2023/06/21 04:48:50;;;;;;;29.48;18.10;;;18.30;99.90;;;;;;4946626;28;20051;-36
2023/06/21 04:51:16;;;;;;;28.25;18.88;;;18.40;99.90;;;;;;4967190;28;20133;-36
2023/06/21 04:53:43;;;;;;;27.80;17.08;;;18.40;99.90;;;;;;4967450;28;20139;-36
2023/06/21 04:56:11;;;;;;;27.02;18.30;;;18.50;99.90;;;;;;4946659;28;21264;-37
2023/06/21 04:58:38;;;;;;;32.45;19.88;;;18.50;99.90;;;;;;4966131;28;20513;-37
2023/06/21 05:01:05;;;;;;;28.35;18.80;;;18.50;99.90;;;;;;4958507;28;20055;-45
2023/06/21 05:03:32;;;;;;;29.70;18.73;;;18.50;99.90;;;;;;4964058;28;20058;-36
2023/06/21 05:06:01;;;;;;;27.80;17.38;;;18.50;99.90;;;;;;4965831;28;20050;-36
2023/06/21 05:08:27;;;;;;;28.75;17.25;;;18.60;99.90;;;;;;4966368;28;20053;-35
2023/06/21 05:10:53;;;;;;;29.52;17.55;;;18.60;99.90;;;;;;4961577;28;20062;-36
2023/06/21 05:13:19;;;;;;;28.30;18.10;;;18.60;99.90;;;;;;4967544;28;20043;-37
2023/06/21 05:15:45;;;;;;;26.42;16.98;;;18.70;99.90;;;;;;4971433;28;20069;-36
2023/06/21 05:18:11;;;;;;;25.63;16.33;;;18.70;99.90;;;;;;4968069;28;20062;-36
2023/06/21 05:20:36;;;;;;;28.67;17.15;;;18.80;99.90;;;;;;4958641;28;20153;-35
2023/06/21 05:23:02;;;;;;;27.83;17.13;;;18.80;99.90;;;;;;4967815;28;20054;-35
2023/06/21 05:25:28;;;;;;;27.50;16.67;;;18.90;99.90;;;;;;4971196;28;20047;-36
2023/06/21 05:27:54;;;;;;;23.85;15.10;;;18.90;99.90;;;;;;4957816;28;20058;-36
2023/06/21 05:30:19;;;;;;;24.52;15.45;;;18.90;99.90;;;;;;4968038;28;20066;-35
2023/06/21 05:32:45;;;;;;;25.45;16.10;;;19.00;99.90;;;;;;4961348;28;20452;-37
2023/06/21 05:35:11;;;;;;;23.15;15.52;;;19.00;99.90;;;;;;4970082;28;20235;-35
2023/06/21 05:37:37;;;;;;;20.02;13.15;;;19.10;99.90;;;;;;4968011;28;20493;-36
2023/06/21 05:40:07;;;;;;;18.88;12.05;;;19.20;99.90;;;;;;4970594;28;20055;-36
2023/06/21 05:42:33;;;;;;;16.33;11.75;;;19.40;99.90;;;;;;4956538;28;20655;-36
2023/06/21 05:44:59;;;;;;;19.95;11.45;;;19.60;99.90;;;;;;4958970;28;20043;-36
2023/06/21 05:47:25;;;;;;;17.60;12.52;;;19.80;99.90;;;;;;4957019;28;20142;-36
2023/06/21 05:49:50;;;;;;;17.58;11.70;;;20.00;99.90;;;;;;4964414;28;20047;-36
2023/06/21 05:52:16;;;;;;;18.23;11.48;;;20.20;99.90;;;;;;4966157;28;20124;-36
2023/06/21 05:54:43;;;;;;;20.30;10.15;;;20.20;99.90;;;;;;4956202;28;20061;-36
2023/06/21 05:57:09;;;;;;;20.90;12.77;;;20.30;99.90;;;;;;4957975;28;20071;-36
2023/06/21 05:59:35;;;;;;;14.20;9.73;;;20.50;99.90;;;;;;4960271;28;20059;-36
2023/06/21 06:02:01;;;;;;;12.18;9.10;;;20.50;99.90;;;;;;4958414;28;20062;-36
2023/06/21 06:04:26;;;;;;;16.75;10.13;;;20.60;99.90;;;;;;4965044;28;20501;-36
2023/06/21 06:06:52;;;;;;;17.55;9.65;;;20.70;99.90;;;;;;4961662;28;20054;-43
2023/06/21 06:09:17;;;;;;;13.18;8.98;;;20.70;99.90;;;;;;4961980;28;20050;-36
2023/06/21 06:11:43;;;;;;;14.73;10.20;;;20.80;99.90;;;;;;4945137;28;20043;-35
2023/06/21 06:14:10;;;;;;;15.95;11.68;;;20.90;99.90;;;;;;4934199;28;20386;-35
2023/06/21 06:16:36;;;;;;;19.70;11.60;;;20.80;99.90;;;;;;4965246;28;20046;-36
2023/06/21 06:19:02;;;;;;;16.73;11.88;;;20.70;99.90;;;;;;4967097;28;20667;-35
2023/06/21 06:21:28;;;;;;;17.70;11.63;;;20.60;99.90;;;;;;4964471;28;20051;-35
2023/06/21 06:23:54;;;;;;;18.00;11.63;;;20.50;99.90;;;;;;4966841;28;20085;-36
2023/06/21 06:26:24;;;;;;;16.60;10.95;;;20.40;99.90;;;;;;4963921;28;20050;-36
2023/06/21 06:28:54;;;;;;;16.70;10.32;;;20.40;99.90;;;;;;4961435;28;20560;-37
2023/06/21 06:31:30;;;;;;;18.58;10.80;;;20.30;99.90;;;;;;4936808;28;20054;-36
2023/06/21 06:33:56;;;;;;;14.88;9.73;;;20.30;99.90;;;;;;4960445;28;20596;-36
2023/06/21 06:36:21;;;;;;;16.02;9.20;;;20.50;99.90;;;;;;4964194;28;20061;-36
2023/06/21 06:38:48;;;;;;;11.73;7.55;;;20.70;99.90;;;;;;4941131;28;21262;-35
2023/06/21 06:41:14;;;;;;;12.07;7.65;;;20.90;99.90;;;;;;4967532;28;20042;-36
2023/06/21 06:43:40;;;;;;;11.85;7.00;;;21.10;99.90;;;;;;4966197;28;20883;-46
2023/06/21 06:46:06;;;;;;;13.00;8.75;;;21.20;99.90;;;;;;4968034;28;20169;-36
2023/06/21 06:48:32;;;;;;;10.85;7.75;;;21.40;99.90;;;;;;4968151;28;20500;-36
2023/06/21 06:50:57;;;;;;;9.98;5.68;;;21.50;99.90;;;;;;4954500;28;20109;-36
2023/06/21 06:53:23;;;;;;;10.32;7.00;;;21.60;99.90;;;;;;4959370;28;20051;-36
2023/06/21 06:55:51;;;;;;;12.95;7.93;;;21.60;99.90;;;;;;4962638;28;20386;-37
2023/06/21 06:58:20;;;;;;;11.18;5.50;;;21.70;99.90;;;;;;4966097;28;20082;-35
2023/06/21 07:00:46;;;;;;;10.48;7.68;;;21.80;99.90;;;;;;4967443;28;20050;-35
2023/06/21 07:03:11;;;;;;;12.20;7.45;;;21.90;99.90;;;;;;4950163;28;20054;-36
2023/06/21 07:05:43;;;;;;;12.50;7.65;;;22.00;99.90;;;;;;4966791;28;20504;-36
2023/06/21 07:08:10;;;;;;;12.15;8.07;;;22.00;99.90;;;;;;4970554;28;20133;-35
2023/06/21 07:10:36;;;;;;;9.32;4.78;;;21.90;99.90;;;;;;4969002;28;20424;-35
2023/06/21 07:13:02;;;;;;;8.30;5.68;;;22.00;99.90;;;;;;4966300;28;20054;-36
2023/06/21 07:15:28;;;;;;;10.25;7.03;;;22.10;99.90;;;;;;4962559;28;20493;-36
2023/06/21 07:17:54;;;;;;;10.32;6.13;;;22.20;99.90;;;;;;4965751;28;20116;-41
2023/06/21 07:20:20;;;;;;;10.95;6.57;;;22.20;99.90;;;;;;4950956;28;20149;-36
2023/06/21 07:22:46;;;;;;;8.57;6.47;;;22.20;99.90;;;;;;4963603;28;20552;-35
2023/06/21 07:25:11;;;;;;;5.30;3.90;;;22.20;99.90;;;;;;4969317;28;20574;-35
2023/06/21 07:27:37;;;;;;;9.13;6.28;;;22.30;99.90;;;;;;4963871;28;20059;-35
2023/06/21 07:30:04;;;;;;;7.22;4.75;;;22.40;99.90;;;;;;4964614;28;20129;-36
2023/06/21 07:32:30;;;;;;;6.85;4.85;;;22.30;99.90;;;;;;4960918;28;20523;-36
2023/06/21 07:34:58;;;;;;;7.40;5.03;;;22.30;99.90;;;;;;4962111;28;20078;-35
2023/06/21 07:37:24;;;;;;;7.38;5.50;;;22.40;99.90;;;;;;4951685;28;20058;-35
2023/06/21 07:39:49;;;;;;;7.13;4.95;;;22.50;99.90;;;;;;4961300;28;20047;-36
2023/06/21 07:42:16;;;;;;;9.05;6.45;;;22.60;99.90;;;;;;4969040;28;20047;-36
2023/06/21 07:44:42;;;;;;;9.07;4.65;;;22.60;99.90;;;;;;4967962;28;20050;-35
2023/06/21 07:47:07;;;;;;;8.70;5.40;;;22.60;99.90;;;;;;4967009;28;20420;-36
2023/06/21 07:49:33;;;;;;;9.80;6.85;;;22.70;99.90;;;;;;4964465;28;20050;-36
2023/06/21 07:51:58;;;;;;;7.68;5.90;;;22.90;99.90;;;;;;4962924;28;20045;-38
2023/06/21 07:54:24;;;;;;;7.10;4.57;;;22.80;99.90;;;;;;4963915;28;20409;-36
2023/06/21 07:56:50;;;;;;;7.03;4.32;;;22.70;99.90;;;;;;4963780;28;20043;-35
2023/06/21 07:59:15;;;;;;;8.93;6.43;;;22.80;99.90;;;;;;4971242;28;20592;-35
2023/06/21 08:01:41;;;;;;;9.45;4.93;;;22.80;99.90;;;;;;4968157;28;20099;-35
2023/06/21 08:04:07;;;;;;;6.00;4.28;;;22.80;99.90;;;;;;4967806;28;20051;-35
2023/06/21 08:06:32;;;;;;;10.68;5.28;;;22.80;99.90;;;;;;4968140;28;20050;-36
2023/06/21 08:08:58;;;;;;;7.68;4.45;;;22.90;99.90;;;;;;4970480;28;20448;-36
2023/06/21 08:11:23;;;;;;;7.57;5.60;;;23.00;99.90;;;;;;4964800;28;20121;-36
2023/06/21 08:13:49;;;;;;;7.50;4.45;;;22.90;99.90;;;;;;4952385;28;20047;-36
2023/06/21 08:16:15;;;;;;;10.43;5.75;;;22.90;99.90;;;;;;4966236;28;20428;-36
2023/06/21 08:18:40;;;;;;;9.07;5.57;;;23.00;99.90;;;;;;4966965;28;20054;-37
2023/06/21 08:21:07;;;;;;;6.80;4.85;;;23.00;99.90;;;;;;4964258;28;20051;-36
2023/06/21 08:23:33;;;;;;;7.55;5.72;;;23.10;99.90;;;;;;4968748;28;20068;-35
2023/06/21 08:25:59;;;;;;;8.25;4.88;;;23.20;99.90;;;;;;4966972;28;20421;-36
2023/06/21 08:28:24;;;;;;;6.85;5.63;;;23.30;99.90;;;;;;4968512;28;20122;-35
2023/06/21 08:30:50;;;;;;;6.88;5.05;;;23.40;99.90;;;;;;4966684;28;20047;-36
2023/06/21 08:33:15;;;;;;;9.68;5.35;;;23.40;99.90;;;;;;4961806;28;20445;-36
2023/06/21 08:35:41;;;;;;;7.72;5.05;;;23.60;99.90;;;;;;4962185;28;20094;-36
2023/06/21 08:38:07;;;;;;;8.10;5.28;;;23.60;99.90;;;;;;4960541;28;20425;-36
2023/06/21 08:40:36;;;;;;;5.47;3.83;;;23.70;99.90;;;;;;4962703;28;20153;-35
2023/06/21 08:43:01;;;;;;;6.07;4.28;;;23.60;99.90;;;;;;4964753;28;20480;-35
2023/06/21 08:45:27;;;;;;;7.25;4.13;;;23.70;99.90;;;;;;4961944;28;20054;-35
2023/06/21 08:47:53;;;;;;;7.80;4.05;;;23.80;99.90;;;;;;4970061;28;20046;-35
2023/06/21 08:50:22;;;;;;;8.27;4.93;;;23.90;99.90;;;;;;4968980;28;20055;-37
2023/06/21 08:52:51;;;;;;;7.95;4.63;;;23.90;99.90;;;;;;4966910;28;20051;-36
2023/06/21 08:55:20;;;;;;;5.40;3.90;;;23.90;99.90;;;;;;4964531;28;20477;-38
2023/06/21 08:57:48;;;;;;;6.05;4.72;;;23.80;99.90;;;;;;4966943;28;20157;-37
2023/06/21 09:00:19;;;;;;;5.80;4.32;;;23.60;99.90;;;;;;4966514;28;20055;-37
2023/06/21 09:03:12;;;;;;;7.53;4.63;;;23.70;99.90;;;;;;4954222;28;20358;-37
2023/06/21 09:05:52;;;;;;;6.97;3.60;;;23.80;99.90;;;;;;4966160;28;20476;-36
2023/06/21 09:08:19;;;;;;;4.85;3.72;;;23.80;99.90;;;;;;4968614;28;20148;-36
2023/06/21 09:10:48;;;;;;;6.10;3.33;;;23.80;99.90;;;;;;4967977;28;20079;-37
2023/06/21 09:13:14;;;;;;;7.25;4.00;;;23.90;99.90;;;;;;4953040;28;20050;-35
2023/06/21 09:15:41;;;;;;;5.80;3.35;;;23.80;99.90;;;;;;4967402;28;20551;-37
2023/06/21 09:18:06;;;;;;;6.72;3.13;;;23.90;99.90;;;;;;4950106;28;20050;-36
2023/06/21 09:20:32;;;;;;;6.35;3.92;;;23.90;99.90;;;;;;4967580;28;20125;-37
2023/06/21 09:22:59;;;;;;;4.93;3.63;;;23.90;99.90;;;;;;4950356;28;20055;-36
2023/06/21 09:25:26;;;;;;;5.47;4.13;;;24.00;99.90;;;;;;4970348;28;20050;-36
2023/06/21 09:27:53;;;;;;;3.60;2.28;;;24.10;99.90;;;;;;4965551;28;20053;-37
2023/06/21 09:30:20;;;;;;;6.00;3.55;;;24.10;99.90;;;;;;4961130;28;20082;-37
2023/06/21 09:32:46;;;;;;;5.88;2.20;;;24.20;99.90;;;;;;4966842;28;20126;-36
2023/06/21 09:35:13;;;;;;;4.57;2.58;;;24.30;99.90;;;;;;4962717;28;20047;-36
2023/06/21 09:37:39;;;;;;;5.55;3.40;;;24.60;99.90;;;;;;4966289;28;20059;-36
2023/06/21 09:40:05;;;;;;;4.43;2.67;;;24.80;99.90;;;;;;4967588;28;20481;-37
2023/06/21 09:42:34;;;;;;;3.53;2.20;;;25.00;99.90;;;;;;4969092;28;20050;-37
2023/06/21 09:45:00;;;;;;;3.28;2.15;;;24.90;99.90;;;;;;4968210;28;20500;-36
2023/06/21 09:47:30;;;;;;;4.03;2.60;;;24.80;99.90;;;;;;4966908;28;20066;-37
2023/06/21 09:49:56;;;;;;;3.28;1.98;;;24.80;99.90;;;;;;4966437;28;20396;-36
2023/06/21 09:52:23;;;;;;;2.63;1.90;;;24.70;99.90;;;;;;4966347;28;20520;-36
2023/06/21 09:54:48;;;;;;;4.22;2.13;;;24.70;99.90;;;;;;4969739;28;20137;-36
2023/06/21 09:57:15;;;;;;;4.70;2.40;;;24.80;99.90;;;;;;4968152;28;20062;-36
2023/06/21 09:59:40;;;;;;;4.07;2.15;;;25.00;99.90;;;;;;4968004;28;20058;-36
2023/06/21 10:02:07;;;;;;;4.07;1.85;;;25.20;99.90;;;;;;4964891;28;20054;-36
2023/06/21 10:04:44;;;;;;;5.03;3.13;;;25.30;99.90;;;;;;4962784;28;20145;-36
2023/06/21 10:07:14;;;;;;;5.85;3.28;;;25.50;99.90;;;;;;4972070;28;20045;-36
2023/06/21 10:09:40;;;;;;;5.60;3.25;;;25.70;99.90;;;;;;4969209;28;20470;-36
2023/06/21 10:12:09;;;;;;;3.08;1.70;;;25.70;99.90;;;;;;4953623;28;20128;-36
2023/06/21 10:14:35;;;;;;;5.68;3.08;;;25.60;99.90;;;;;;4967353;28;20499;-36
2023/06/21 10:17:02;;;;;;;6.95;4.13;;;25.60;99.90;;;;;;4967321;28;20111;-37
2023/06/21 10:19:31;;;;;;;5.82;3.83;;;25.60;99.90;;;;;;4974485;28;20046;-53
2023/06/21 10:22:07;;;;;;;6.95;3.00;;;25.50;99.90;;;;;;4970214;28;20101;-36
2023/06/21 10:24:49;;;;;;;4.90;2.95;;;25.40;99.90;;;;;;4965980;28;20062;-36
2023/06/21 10:27:17;;;;;;;4.30;3.28;;;25.20;99.90;;;;;;4955365;28;20485;-36
2023/06/21 10:29:45;;;;;;;5.97;3.13;;;25.30;99.90;;;;;;4965060;28;20437;-36
2023/06/21 10:32:11;;;;;;;6.30;4.22;;;25.40;99.90;;;;;;4965079;28;20051;-36
2023/06/21 10:34:57;;;;;;;5.40;3.15;;;25.30;99.90;;;;;;4965971;28;20495;-36
2023/06/21 10:37:34;;;;;;;5.70;3.22;;;25.40;99.90;;;;;;4966034;28;20047;-35
2023/06/21 10:40:04;;;;;;;4.65;2.60;;;25.50;99.90;;;;;;4967098;28;20067;-35
2023/06/21 10:42:31;;;;;;;5.82;3.17;;;25.50;99.90;;;;;;4967922;28;20102;-36
2023/06/21 10:44:59;;;;;;;5.47;3.42;;;25.70;99.90;;;;;;4966898;28;20390;-36
2023/06/21 10:47:25;;;;;;;4.50;3.28;;;25.80;99.90;;;;;;4966756;28;20492;-35
2023/06/21 10:49:57;;;;;;;5.88;4.03;;;25.80;99.90;;;;;;4963560;28;20102;-36
2023/06/21 10:52:23;;;;;;;5.40;3.45;;;25.90;99.90;;;;;;4964370;28;20050;-35
2023/06/21 10:54:50;;;;;;;3.45;2.30;;;26.00;99.90;;;;;;4966146;28;20043;-35
2023/06/21 10:57:17;;;;;;;11.10;5.00;;;26.10;99.90;;;;;;4964527;28;20063;-36
2023/06/21 10:59:43;;;;;;;4.20;3.22;;;26.30;99.90;;;;;;4967166;28;20043;-35
2023/06/21 11:02:09;;;;;;;4.70;3.25;;;26.20;99.90;;;;;;4963688;28;21079;-36
2023/06/21 11:05:13;;;;;;;6.05;4.45;;;26.00;99.90;;;;;;4963821;28;20420;-36
2023/06/21 11:07:54;;;;;;;5.65;3.55;;;25.90;99.90;;;;;;4965065;28;20085;-36
2023/06/21 11:10:40;;;;;;;6.73;4.03;;;26.00;99.90;;;;;;4959313;28;20532;-36
2023/06/21 11:13:06;;;;;;;8.05;3.90;;;26.10;99.90;;;;;;4942640;28;20302;-36
2023/06/21 11:15:32;;;;;;;5.93;4.72;;;26.40;99.90;;;;;;4965494;28;20054;-36
2023/06/21 11:18:06;;;;;;;7.20;4.55;;;26.50;99.90;;;;;;4969291;28;20150;-36
2023/06/21 11:20:47;;;;;;;5.72;4.70;;;26.50;99.90;;;;;;4966817;28;20070;-36
2023/06/21 11:23:16;;;;;;;4.30;2.90;;;26.50;99.90;;;;;;4970760;28;20055;-36
2023/06/21 11:25:53;;;;;;;5.00;4.00;;;26.50;99.90;;;;;;4967848;28;20058;-37
2023/06/21 11:28:19;;;;;;;5.97;3.78;;;26.60;99.90;;;;;;4966061;28;20094;-36
2023/06/21 11:31:08;;;;;;;4.25;3.22;;;26.70;99.90;;;;;;4963227;28;20075;-36
2023/06/21 11:33:47;;;;;;;5.07;3.40;;;26.80;99.90;;;;;;4968912;28;20089;-36
2023/06/21 11:36:13;;;;;;;4.15;3.25;;;26.80;99.90;;;;;;4966030;28;20058;-36
2023/06/21 11:38:49;;;;;;;3.97;2.53;;;26.60;99.90;;;;;;4949273;28;20062;-36
2023/06/21 11:41:40;;;;;;;4.35;3.30;;;26.60;99.90;;;;;;4962921;28;20229;-36
2023/06/21 11:44:13;;;;;;;5.13;3.63;;;26.70;99.90;;;;;;4965199;28;20050;-37
2023/06/21 11:46:40;;;;;;;4.30;2.55;;;26.90;99.90;;;;;;4966983;28;20061;-37
2023/06/21 11:49:06;;;;;;;5.00;2.88;;;26.80;99.90;;;;;;4968234;28;20357;-36
2023/06/21 11:51:32;;;;;;;4.72;2.75;;;26.80;99.90;;;;;;4972168;28;20440;-36
2023/06/21 11:53:58;;;;;;;3.55;2.10;;;26.80;99.90;;;;;;4964096;28;20508;-37
2023/06/21 11:56:34;;;;;;;4.22;2.80;;;27.00;99.90;;;;;;4964779;28;20081;-36
2023/06/21 11:59:05;;;;;;;3.85;2.50;;;27.10;99.90;;;;;;4962123;28;20201;-36
2023/06/21 12:01:31;;;;;;;3.58;1.95;;;27.30;99.90;;;;;;4964547;28;20525;-36
2023/06/21 12:04:00;;;;;;;5.55;2.25;;;27.40;99.90;;;;;;4961004;28;20137;-36
2023/06/21 12:06:28;;;;;;;3.95;2.50;;;27.40;99.90;;;;;;4960223;28;20080;-36
2023/06/21 12:08:57;;;;;;;2.55;1.50;;;27.50;99.90;;;;;;4962663;28;20046;-36
2023/06/21 12:11:26;;;;;;;3.22;1.88;;;27.50;99.90;;;;;;4962839;28;20135;-36
2023/06/21 12:13:52;;;;;;;4.60;2.50;;;27.50;99.90;;;;;;4960040;28;20057;-36
2023/06/21 12:16:17;;;;;;;3.08;2.03;;;27.40;99.90;;;;;;4960288;28;20046;-36
2023/06/21 12:18:43;;;;;;;3.58;1.95;;;27.30;99.90;;;;;;4964814;28;20105;-36
2023/06/21 12:21:09;;;;;;;3.35;2.03;;;27.10;99.90;;;;;;4956741;28;20074;-36
2023/06/21 12:23:34;;;;;;;4.70;2.13;;;27.10;99.90;;;;;;4944979;28;20150;-36
2023/06/21 12:26:05;;;;;;;3.38;2.13;;;27.20;99.90;;;;;;4955204;28;20555;-36
2023/06/21 12:28:32;;;;;;;4.78;2.95;;;27.30;99.90;;;;;;4958615;28;20062;-36
2023/06/21 12:31:03;;;;;;;4.93;2.60;;;27.40;99.90;;;;;;4964275;28;20058;-37
2023/06/21 12:33:34;;;;;;;3.10;2.08;;;27.40;99.90;;;;;;4960114;28;20425;-35
2023/06/21 12:36:12;;;;;;;3.90;2.17;;;27.50;99.90;;;;;;4956471;28;20420;-35
2023/06/21 12:38:38;;;;;;;3.50;1.85;;;27.60;99.90;;;;;;4959170;28;20047;-35
2023/06/21 12:41:03;;;;;;;3.78;2.60;;;27.70;99.90;;;;;;4945448;28;20471;-34